sensor_id;sensor_type;location;lat;lon;timestamp;temperature;humidity
1778;DHT22;886;50.082;8.222;2022-09-02T00:01:38;19.90;76.10
1778;DHT22;886;50.082;8.222;2022-09-02T00:04:09;19.90;76.00
1778;DHT22;886;50.082;8.222;2022-09-02T00:06:40;19.70;76.50
1778;DHT22;886;50.082;8.222;2022-09-02T00:09:09;19.50;77.50
1778;DHT22;886;50.082;8.222;2022-09-02T00:11:39;19.50;77.80
1778;DHT22;886;50.082;8.222;2022-09-02T00:14:16;19.50;77.70
1778;DHT22;886;50.082;8.222;2022-09-02T00:16:45;19.40;78.20
1778;DHT22;886;50.082;8.222;2022-09-02T00:19:22;19.30;79.30
1778;DHT22;886;50.082;8.222;2022-09-02T00:21:53;19.30;79.70
1778;DHT22;886;50.082;8.222;2022-09-02T00:24:21;19.00;80.00
1778;DHT22;886;50.082;8.222;2022-09-02T00:26:49;18.90;81.00
1778;DHT22;886;50.082;8.222;2022-09-02T00:29:22;19.00;80.50
1778;DHT22;886;50.082;8.222;2022-09-02T00:31:50;18.80;80.90
1778;DHT22;886;50.082;8.222;2022-09-02T00:34:18;18.80;80.90
1778;DHT22;886;50.082;8.222;2022-09-02T00:36:46;18.90;81.00
1778;DHT22;886;50.082;8.222;2022-09-02T00:39:18;18.90;81.10
1778;DHT22;886;50.082;8.222;2022-09-02T00:41:45;18.80;81.30
1778;DHT22;886;50.082;8.222;2022-09-02T00:44:14;18.90;81.60
1778;DHT22;886;50.082;8.222;2022-09-02T00:46:43;18.90;81.60
1778;DHT22;886;50.082;8.222;2022-09-02T00:49:17;18.80;82.40
1778;DHT22;886;50.082;8.222;2022-09-02T00:51:58;18.80;82.30
1778;DHT22;886;50.082;8.222;2022-09-02T00:54:30;18.90;82.70
1778;DHT22;886;50.082;8.222;2022-09-02T00:56:59;18.90;82.20
1778;DHT22;886;50.082;8.222;2022-09-02T00:59:37;18.80;81.40
1778;DHT22;886;50.082;8.222;2022-09-02T01:02:10;18.70;82.00
1778;DHT22;886;50.082;8.222;2022-09-02T01:04:39;18.80;82.10
1778;DHT22;886;50.082;8.222;2022-09-02T01:07:08;18.60;83.10
1778;DHT22;886;50.082;8.222;2022-09-02T01:09:37;18.60;83.20
1778;DHT22;886;50.082;8.222;2022-09-02T01:12:05;18.60;83.00
1778;DHT22;886;50.082;8.222;2022-09-02T01:14:32;18.60;83.10
1778;DHT22;886;50.082;8.222;2022-09-02T01:17:02;18.60;83.10
1778;DHT22;886;50.082;8.222;2022-09-02T01:19:33;18.60;82.70
1778;DHT22;886;50.082;8.222;2022-09-02T01:22:07;18.30;83.60
1778;DHT22;886;50.082;8.222;2022-09-02T01:24:44;18.20;84.60
1778;DHT22;886;50.082;8.222;2022-09-02T01:27:17;17.90;85.20
1778;DHT22;886;50.082;8.222;2022-09-02T01:29:52;18.10;84.80
1778;DHT22;886;50.082;8.222;2022-09-02T01:32:22;18.10;84.70
1778;DHT22;886;50.082;8.222;2022-09-02T01:34:58;18.20;84.00
1778;DHT22;886;50.082;8.222;2022-09-02T01:37:27;18.10;84.30
1778;DHT22;886;50.082;8.222;2022-09-02T01:39:55;18.10;84.70
1778;DHT22;886;50.082;8.222;2022-09-02T01:42:22;18.00;85.10
1778;DHT22;886;50.082;8.222;2022-09-02T01:44:52;18.00;85.10
1778;DHT22;886;50.082;8.222;2022-09-02T01:47:22;17.90;85.00
1778;DHT22;886;50.082;8.222;2022-09-02T01:49:51;17.70;85.90
1778;DHT22;886;50.082;8.222;2022-09-02T01:52:21;17.70;86.00
1778;DHT22;886;50.082;8.222;2022-09-02T01:54:57;17.70;86.40
1778;DHT22;886;50.082;8.222;2022-09-02T01:57:27;17.70;86.60
1778;DHT22;886;50.082;8.222;2022-09-02T01:59:54;17.80;86.10
1778;DHT22;886;50.082;8.222;2022-09-02T02:02:22;17.80;86.20
1778;DHT22;886;50.082;8.222;2022-09-02T02:04:50;17.70;86.80
1778;DHT22;886;50.082;8.222;2022-09-02T02:07:20;17.60;86.30
1778;DHT22;886;50.082;8.222;2022-09-02T02:09:48;17.60;86.50
1778;DHT22;886;50.082;8.222;2022-09-02T02:12:23;17.40;87.00
1778;DHT22;886;50.082;8.222;2022-09-02T02:14:53;17.40;87.50
1778;DHT22;886;50.082;8.222;2022-09-02T02:17:21;17.60;87.40
1778;DHT22;886;50.082;8.222;2022-09-02T02:19:51;17.60;86.70
1778;DHT22;886;50.082;8.222;2022-09-02T02:22:18;17.30;87.40
1778;DHT22;886;50.082;8.222;2022-09-02T02:24:46;17.30;88.00
1778;DHT22;886;50.082;8.222;2022-09-02T02:27:16;17.40;87.80
1778;DHT22;886;50.082;8.222;2022-09-02T02:29:45;17.40;87.90
1778;DHT22;886;50.082;8.222;2022-09-02T02:32:13;17.30;88.00
1778;DHT22;886;50.082;8.222;2022-09-02T02:34:40;17.30;88.30
1778;DHT22;886;50.082;8.222;2022-09-02T02:37:10;17.40;88.30
1778;DHT22;886;50.082;8.222;2022-09-02T02:39:38;17.40;88.00
1778;DHT22;886;50.082;8.222;2022-09-02T02:42:06;17.40;87.80
1778;DHT22;886;50.082;8.222;2022-09-02T02:44:34;17.30;88.30
1778;DHT22;886;50.082;8.222;2022-09-02T02:47:03;17.00;89.90
1778;DHT22;886;50.082;8.222;2022-09-02T02:49:30;17.20;89.40
1778;DHT22;886;50.082;8.222;2022-09-02T02:51:58;17.20;89.20
1778;DHT22;886;50.082;8.222;2022-09-02T02:54:25;17.20;89.20
1778;DHT22;886;50.082;8.222;2022-09-02T02:57:04;17.20;89.20
1778;DHT22;886;50.082;8.222;2022-09-02T02:59:32;17.20;88.80
1778;DHT22;886;50.082;8.222;2022-09-02T03:01:59;17.00;90.00
1778;DHT22;886;50.082;8.222;2022-09-02T03:04:28;17.00;90.00
1778;DHT22;886;50.082;8.222;2022-09-02T03:06:56;17.10;89.70
1778;DHT22;886;50.082;8.222;2022-09-02T03:09:23;16.90;90.00
1778;DHT22;886;50.082;8.222;2022-09-02T03:11:50;16.90;90.10
1778;DHT22;886;50.082;8.222;2022-09-02T03:14:17;16.90;90.10
1778;DHT22;886;50.082;8.222;2022-09-02T03:16:46;17.00;90.10
1778;DHT22;886;50.082;8.222;2022-09-02T03:19:15;16.80;90.00
1778;DHT22;886;50.082;8.222;2022-09-02T03:21:47;16.60;90.90
1778;DHT22;886;50.082;8.222;2022-09-02T03:24:14;16.50;90.90
1778;DHT22;886;50.082;8.222;2022-09-02T03:26:42;16.50;91.00
1778;DHT22;886;50.082;8.222;2022-09-02T03:29:09;16.60;90.90
1778;DHT22;886;50.082;8.222;2022-09-02T03:31:38;16.60;90.90
1778;DHT22;886;50.082;8.222;2022-09-02T03:34:05;16.60;91.00
1778;DHT22;886;50.082;8.222;2022-09-02T03:36:39;16.60;90.80
1778;DHT22;886;50.082;8.222;2022-09-02T03:39:09;16.60;90.90
1778;DHT22;886;50.082;8.222;2022-09-02T03:41:37;16.70;90.80
1778;DHT22;886;50.082;8.222;2022-09-02T03:44:08;16.60;90.90
1778;DHT22;886;50.082;8.222;2022-09-02T03:46:36;16.50;91.20
1778;DHT22;886;50.082;8.222;2022-09-02T03:49:04;16.60;91.10
1778;DHT22;886;50.082;8.222;2022-09-02T03:51:31;16.70;91.20
1778;DHT22;886;50.082;8.222;2022-09-02T03:53:59;16.60;91.20
1778;DHT22;886;50.082;8.222;2022-09-02T03:56:31;16.60;91.40
1778;DHT22;886;50.082;8.222;2022-09-02T03:58:58;16.70;91.10
1778;DHT22;886;50.082;8.222;2022-09-02T04:01:26;16.70;91.10
1778;DHT22;886;50.082;8.222;2022-09-02T04:04:00;16.70;91.10
1778;DHT22;886;50.082;8.222;2022-09-02T04:06:27;16.60;91.00
1778;DHT22;886;50.082;8.222;2022-09-02T04:08:58;16.40;91.60
1778;DHT22;886;50.082;8.222;2022-09-02T04:11:25;16.30;91.90
1778;DHT22;886;50.082;8.222;2022-09-02T04:13:54;16.40;91.50
1778;DHT22;886;50.082;8.222;2022-09-02T04:23:37;16.50;91.60
1778;DHT22;886;50.082;8.222;2022-09-02T04:26:09;16.70;91.60
1778;DHT22;886;50.082;8.222;2022-09-02T04:28:39;16.60;91.60
1778;DHT22;886;50.082;8.222;2022-09-02T04:31:10;16.60;91.60
1778;DHT22;886;50.082;8.222;2022-09-02T04:33:38;16.50;91.80
1778;DHT22;886;50.082;8.222;2022-09-02T04:36:11;16.40;92.00
1778;DHT22;886;50.082;8.222;2022-09-02T04:38:40;16.50;91.70
1778;DHT22;886;50.082;8.222;2022-09-02T04:41:10;16.50;91.80
1778;DHT22;886;50.082;8.222;2022-09-02T04:43:45;16.40;92.00
1778;DHT22;886;50.082;8.222;2022-09-02T04:46:15;16.40;92.20
1778;DHT22;886;50.082;8.222;2022-09-02T04:48:43;16.50;92.10
1778;DHT22;886;50.082;8.222;2022-09-02T04:51:18;16.50;92.30
1778;DHT22;886;50.082;8.222;2022-09-02T04:53:50;16.60;92.30
1778;DHT22;886;50.082;8.222;2022-09-02T04:56:21;16.60;92.10
1778;DHT22;886;50.082;8.222;2022-09-02T04:58:50;16.60;92.10
1778;DHT22;886;50.082;8.222;2022-09-02T05:01:21;16.60;92.10
1778;DHT22;886;50.082;8.222;2022-09-02T05:03:51;16.40;92.50
1778;DHT22;886;50.082;8.222;2022-09-02T05:06:21;16.40;92.70
1778;DHT22;886;50.082;8.222;2022-09-02T05:08:50;16.30;93.10
1778;DHT22;886;50.082;8.222;2022-09-02T05:11:19;16.20;93.20
1778;DHT22;886;50.082;8.222;2022-09-02T05:13:49;16.20;93.20
1778;DHT22;886;50.082;8.222;2022-09-02T05:16:20;16.30;93.00
1778;DHT22;886;50.082;8.222;2022-09-02T05:18:50;16.30;92.70
1778;DHT22;886;50.082;8.222;2022-09-02T05:21:18;16.30;93.00
1778;DHT22;886;50.082;8.222;2022-09-02T05:23:46;16.50;92.60
1778;DHT22;886;50.082;8.222;2022-09-02T05:26:13;16.60;92.40
1778;DHT22;886;50.082;8.222;2022-09-02T05:28:41;16.40;92.60
1778;DHT22;886;50.082;8.222;2022-09-02T05:31:11;16.50;92.60
1778;DHT22;886;50.082;8.222;2022-09-02T05:33:41;16.70;92.50
1778;DHT22;886;50.082;8.222;2022-09-02T05:36:12;16.50;92.50
1778;DHT22;886;50.082;8.222;2022-09-02T05:38:42;16.40;92.60
1778;DHT22;886;50.082;8.222;2022-09-02T05:41:11;16.30;92.90
1778;DHT22;886;50.082;8.222;2022-09-02T05:43:42;16.30;93.10
1778;DHT22;886;50.082;8.222;2022-09-02T05:46:13;16.40;93.10
1778;DHT22;886;50.082;8.222;2022-09-02T05:48:45;16.50;93.00
1778;DHT22;886;50.082;8.222;2022-09-02T05:51:32;16.50;93.10
1778;DHT22;886;50.082;8.222;2022-09-02T05:54:00;16.40;93.10
1778;DHT22;886;50.082;8.222;2022-09-02T05:56:27;16.50;93.40
1778;DHT22;886;50.082;8.222;2022-09-02T05:58:55;16.50;93.30
1778;DHT22;886;50.082;8.222;2022-09-02T06:01:26;16.50;93.20
1778;DHT22;886;50.082;8.222;2022-09-02T06:03:54;16.70;92.90
1778;DHT22;886;50.082;8.222;2022-09-02T06:06:25;16.90;92.90
1778;DHT22;886;50.082;8.222;2022-09-02T06:08:53;16.90;92.60
1778;DHT22;886;50.082;8.222;2022-09-02T06:11:20;17.00;92.70
1778;DHT22;886;50.082;8.222;2022-09-02T06:13:53;16.90;92.70
1778;DHT22;886;50.082;8.222;2022-09-02T06:16:21;17.00;92.70
1778;DHT22;886;50.082;8.222;2022-09-02T06:18:50;17.00;92.70
1778;DHT22;886;50.082;8.222;2022-09-02T06:21:19;17.00;92.90
1778;DHT22;886;50.082;8.222;2022-09-02T06:23:47;16.90;93.10
1778;DHT22;886;50.082;8.222;2022-09-02T06:26:16;16.90;93.40
1778;DHT22;886;50.082;8.222;2022-09-02T06:28:44;17.00;93.10
1778;DHT22;886;50.082;8.222;2022-09-02T06:31:13;17.20;93.00
1778;DHT22;886;50.082;8.222;2022-09-02T06:33:43;17.30;93.10
1778;DHT22;886;50.082;8.222;2022-09-02T06:36:15;17.40;92.90
1778;DHT22;886;50.082;8.222;2022-09-02T06:38:46;17.50;92.60
1778;DHT22;886;50.082;8.222;2022-09-02T06:41:18;17.60;92.50
1778;DHT22;886;50.082;8.222;2022-09-02T06:43:49;17.70;92.40
1778;DHT22;886;50.082;8.222;2022-09-02T06:46:18;17.80;92.40
1778;DHT22;886;50.082;8.222;2022-09-02T06:48:47;17.70;92.80
1778;DHT22;886;50.082;8.222;2022-09-02T06:51:25;17.80;92.70
1778;DHT22;886;50.082;8.222;2022-09-02T06:53:56;17.80;92.90
1778;DHT22;886;50.082;8.222;2022-09-02T06:56:26;18.00;92.90
1778;DHT22;886;50.082;8.222;2022-09-02T06:58:54;18.00;92.80
1778;DHT22;886;50.082;8.222;2022-09-02T07:01:24;18.20;92.70
1778;DHT22;886;50.082;8.222;2022-09-02T07:03:54;18.10;92.70
1778;DHT22;886;50.082;8.222;2022-09-02T07:06:41;18.30;88.20
1778;DHT22;886;50.082;8.222;2022-09-02T07:09:12;18.40;87.20
1778;DHT22;886;50.082;8.222;2022-09-02T07:11:41;18.50;84.30
1778;DHT22;886;50.082;8.222;2022-09-02T07:14:08;18.60;83.60
1778;DHT22;886;50.082;8.222;2022-09-02T07:16:41;18.70;83.40
1778;DHT22;886;50.082;8.222;2022-09-02T07:19:11;18.80;81.50
1778;DHT22;886;50.082;8.222;2022-09-02T07:21:46;18.90;81.50
1778;DHT22;886;50.082;8.222;2022-09-02T07:24:17;19.00;81.00
1778;DHT22;886;50.082;8.222;2022-09-02T07:26:45;19.00;80.80
1778;DHT22;886;50.082;8.222;2022-09-02T07:29:13;19.10;80.70
1778;DHT22;886;50.082;8.222;2022-09-02T07:31:44;19.30;80.60
1778;DHT22;886;50.082;8.222;2022-09-02T07:34:12;19.50;79.70
1778;DHT22;886;50.082;8.222;2022-09-02T07:36:40;19.70;78.50
1778;DHT22;886;50.082;8.222;2022-09-02T07:39:09;19.90;78.20
1778;DHT22;886;50.082;8.222;2022-09-02T07:41:39;20.10;77.70
1778;DHT22;886;50.082;8.222;2022-09-02T07:44:10;20.20;76.70
1778;DHT22;886;50.082;8.222;2022-09-02T07:46:38;20.10;76.30
1778;DHT22;886;50.082;8.222;2022-09-02T07:49:08;20.00;77.00
1778;DHT22;886;50.082;8.222;2022-09-02T07:51:39;19.90;77.00
1778;DHT22;886;50.082;8.222;2022-09-02T07:54:08;19.90;77.60
1778;DHT22;886;50.082;8.222;2022-09-02T07:56:41;19.90;77.40
1778;DHT22;886;50.082;8.222;2022-09-02T07:59:09;19.90;77.40
1778;DHT22;886;50.082;8.222;2022-09-02T08:01:37;19.90;77.50
1778;DHT22;886;50.082;8.222;2022-09-02T08:04:07;19.90;77.90
1778;DHT22;886;50.082;8.222;2022-09-02T08:06:40;19.90;77.60
1778;DHT22;886;50.082;8.222;2022-09-02T08:09:09;20.00;77.20
1778;DHT22;886;50.082;8.222;2022-09-02T08:11:42;20.00;76.70
1778;DHT22;886;50.082;8.222;2022-09-02T08:14:14;20.10;77.50
1778;DHT22;886;50.082;8.222;2022-09-02T08:16:44;20.10;77.00
1778;DHT22;886;50.082;8.222;2022-09-02T08:19:14;20.20;76.60
1778;DHT22;886;50.082;8.222;2022-09-02T08:21:41;20.20;76.80
1778;DHT22;886;50.082;8.222;2022-09-02T08:24:08;20.30;76.20
1778;DHT22;886;50.082;8.222;2022-09-02T08:26:36;20.40;75.80
1778;DHT22;886;50.082;8.222;2022-09-02T08:29:06;20.50;75.50
1778;DHT22;886;50.082;8.222;2022-09-02T08:31:37;20.70;76.00
1778;DHT22;886;50.082;8.222;2022-09-02T08:34:07;20.80;75.50
1778;DHT22;886;50.082;8.222;2022-09-02T08:36:35;20.90;75.00
1778;DHT22;886;50.082;8.222;2022-09-02T08:39:03;20.90;75.20
1778;DHT22;886;50.082;8.222;2022-09-02T08:41:33;21.00;75.00
1778;DHT22;886;50.082;8.222;2022-09-02T08:44:09;21.00;74.80
1778;DHT22;886;50.082;8.222;2022-09-02T08:46:39;20.90;74.80
1778;DHT22;886;50.082;8.222;2022-09-02T08:49:10;20.90;74.50
1778;DHT22;886;50.082;8.222;2022-09-02T08:51:48;20.90;74.60
1778;DHT22;886;50.082;8.222;2022-09-02T08:54:21;21.00;74.20
1778;DHT22;886;50.082;8.222;2022-09-02T08:56:54;21.00;75.00
1778;DHT22;886;50.082;8.222;2022-09-02T08:59:25;21.00;74.80
1778;DHT22;886;50.082;8.222;2022-09-02T09:02:03;21.00;74.20
1778;DHT22;886;50.082;8.222;2022-09-02T09:04:50;21.00;74.70
1778;DHT22;886;50.082;8.222;2022-09-02T09:07:29;21.10;74.50
1778;DHT22;886;50.082;8.222;2022-09-02T09:10:10;21.10;74.20
1778;DHT22;886;50.082;8.222;2022-09-02T09:12:56;21.10;73.80
1778;DHT22;886;50.082;8.222;2022-09-02T09:15:35;21.20;73.40
1778;DHT22;886;50.082;8.222;2022-09-02T09:18:11;21.40;72.80
1778;DHT22;886;50.082;8.222;2022-09-02T09:20:42;21.40;72.50
1778;DHT22;886;50.082;8.222;2022-09-02T09:23:20;21.40;72.80
1778;DHT22;886;50.082;8.222;2022-09-02T09:25:55;21.40;72.40
1778;DHT22;886;50.082;8.222;2022-09-02T09:28:25;21.40;72.00
1778;DHT22;886;50.082;8.222;2022-09-02T09:30:53;21.50;71.80
1778;DHT22;886;50.082;8.222;2022-09-02T09:33:21;21.60;72.00
1778;DHT22;886;50.082;8.222;2022-09-02T09:35:54;21.60;72.50
1778;DHT22;886;50.082;8.222;2022-09-02T09:38:28;21.60;71.50
1778;DHT22;886;50.082;8.222;2022-09-02T09:41:20;21.70;71.20
1778;DHT22;886;50.082;8.222;2022-09-02T09:43:49;21.80;69.90
1778;DHT22;886;50.082;8.222;2022-09-02T09:46:25;21.90;69.20
1778;DHT22;886;50.082;8.222;2022-09-02T09:48:54;21.90;69.20
1778;DHT22;886;50.082;8.222;2022-09-02T09:51:22;22.10;68.70
1778;DHT22;886;50.082;8.222;2022-09-02T09:53:49;22.10;69.40
1778;DHT22;886;50.082;8.222;2022-09-02T09:56:45;22.10;69.30
1778;DHT22;886;50.082;8.222;2022-09-02T09:59:37;22.10;68.70
1778;DHT22;886;50.082;8.222;2022-09-02T10:02:19;22.20;68.40
1778;DHT22;886;50.082;8.222;2022-09-02T10:04:47;22.20;66.90
1778;DHT22;886;50.082;8.222;2022-09-02T10:07:33;22.40;65.60
1778;DHT22;886;50.082;8.222;2022-09-02T10:10:16;22.60;63.30
1778;DHT22;886;50.082;8.222;2022-09-02T10:12:45;22.70;63.40
1778;DHT22;886;50.082;8.222;2022-09-02T10:15:15;22.70;63.30
1778;DHT22;886;50.082;8.222;2022-09-02T10:17:52;22.70;62.90
1778;DHT22;886;50.082;8.222;2022-09-02T10:20:33;22.70;61.80
1778;DHT22;886;50.082;8.222;2022-09-02T10:23:34;22.80;63.30
1778;DHT22;886;50.082;8.222;2022-09-02T10:26:15;22.90;62.00
1778;DHT22;886;50.082;8.222;2022-09-02T10:32:32;23.30;60.30
1778;DHT22;886;50.082;8.222;2022-09-02T10:35:10;23.30;61.00
1778;DHT22;886;50.082;8.222;2022-09-02T10:37:48;23.50;58.40
1778;DHT22;886;50.082;8.222;2022-09-02T10:40:29;23.50;58.40
1778;DHT22;886;50.082;8.222;2022-09-02T10:43:25;23.50;57.40
1778;DHT22;886;50.082;8.222;2022-09-02T10:45:59;23.80;56.70
1778;DHT22;886;50.082;8.222;2022-09-02T10:48:34;23.80;56.90
1778;DHT22;886;50.082;8.222;2022-09-02T10:51:15;23.80;56.80
1778;DHT22;886;50.082;8.222;2022-09-02T10:53:57;23.90;56.70
1778;DHT22;886;50.082;8.222;2022-09-02T10:56:40;23.90;56.30
1778;DHT22;886;50.082;8.222;2022-09-02T10:59:11;23.90;55.80
1778;DHT22;886;50.082;8.222;2022-09-02T11:01:43;23.90;55.40
1778;DHT22;886;50.082;8.222;2022-09-02T11:04:18;23.90;55.20
1778;DHT22;886;50.082;8.222;2022-09-02T11:06:55;23.90;55.80
1778;DHT22;886;50.082;8.222;2022-09-02T11:09:33;23.90;55.40
1778;DHT22;886;50.082;8.222;2022-09-02T11:12:06;24.00;55.80
1778;DHT22;886;50.082;8.222;2022-09-02T11:14:42;24.00;54.90
1778;DHT22;886;50.082;8.222;2022-09-02T11:17:22;24.00;54.50
1778;DHT22;886;50.082;8.222;2022-09-02T11:19:56;24.00;55.20
1778;DHT22;886;50.082;8.222;2022-09-02T11:22:32;23.90;54.90
1778;DHT22;886;50.082;8.222;2022-09-02T11:25:05;23.90;55.30
1778;DHT22;886;50.082;8.222;2022-09-02T11:27:39;23.80;56.00
1778;DHT22;886;50.082;8.222;2022-09-02T11:30:13;23.90;56.70
1778;DHT22;886;50.082;8.222;2022-09-02T11:32:46;24.00;55.00
1778;DHT22;886;50.082;8.222;2022-09-02T11:35:20;24.00;55.80
1778;DHT22;886;50.082;8.222;2022-09-02T11:37:56;24.00;55.40
1778;DHT22;886;50.082;8.222;2022-09-02T11:40:27;24.10;55.10
1778;DHT22;886;50.082;8.222;2022-09-02T11:43:17;24.10;55.40
1778;DHT22;886;50.082;8.222;2022-09-02T11:46:19;24.10;55.50
1778;DHT22;886;50.082;8.222;2022-09-02T11:49:35;24.20;55.10
1778;DHT22;886;50.082;8.222;2022-09-02T11:52:45;24.10;54.70
1778;DHT22;886;50.082;8.222;2022-09-02T11:55:28;24.10;55.10
1778;DHT22;886;50.082;8.222;2022-09-02T11:57:58;24.10;54.50
1778;DHT22;886;50.082;8.222;2022-09-02T12:00:30;24.20;54.50
1778;DHT22;886;50.082;8.222;2022-09-02T12:03:18;24.20;54.60
1778;DHT22;886;50.082;8.222;2022-09-02T12:06:09;24.20;53.50
1778;DHT22;886;50.082;8.222;2022-09-02T12:09:05;24.10;53.60
1778;DHT22;886;50.082;8.222;2022-09-02T12:11:39;24.10;53.50
1778;DHT22;886;50.082;8.222;2022-09-02T12:14:09;24.10;54.30
1778;DHT22;886;50.082;8.222;2022-09-02T12:16:44;24.10;53.30
1778;DHT22;886;50.082;8.222;2022-09-02T12:19:39;24.10;53.60
1778;DHT22;886;50.082;8.222;2022-09-02T12:22:32;24.10;54.10
1778;DHT22;886;50.082;8.222;2022-09-02T12:25:33;24.10;53.90
1778;DHT22;886;50.082;8.222;2022-09-02T12:28:16;24.10;54.00
1778;DHT22;886;50.082;8.222;2022-09-02T12:31:14;24.10;54.20
1778;DHT22;886;50.082;8.222;2022-09-02T12:33:51;24.10;53.80
1778;DHT22;886;50.082;8.222;2022-09-02T12:36:46;24.20;53.90
1778;DHT22;886;50.082;8.222;2022-09-02T12:39:52;24.20;53.90
1778;DHT22;886;50.082;8.222;2022-09-02T12:42:30;24.30;54.10
1778;DHT22;886;50.082;8.222;2022-09-02T12:45:10;24.20;54.60
1778;DHT22;886;50.082;8.222;2022-09-02T12:47:50;24.30;54.10
1778;DHT22;886;50.082;8.222;2022-09-02T12:50:26;24.20;54.10
1778;DHT22;886;50.082;8.222;2022-09-02T12:53:33;24.20;54.80
1778;DHT22;886;50.082;8.222;2022-09-02T12:56:04;24.30;53.90
1778;DHT22;886;50.082;8.222;2022-09-02T12:58:47;24.30;53.80
1778;DHT22;886;50.082;8.222;2022-09-02T13:01:19;24.30;53.80
1778;DHT22;886;50.082;8.222;2022-09-02T13:04:22;24.30;54.10
1778;DHT22;886;50.082;8.222;2022-09-02T13:07:34;24.20;52.90
1778;DHT22;886;50.082;8.222;2022-09-02T13:14:04;24.20;53.50
1778;DHT22;886;50.082;8.222;2022-09-02T13:16:49;24.10;52.50
1778;DHT22;886;50.082;8.222;2022-09-02T13:20:08;24.10;53.40
1778;DHT22;886;50.082;8.222;2022-09-02T13:23:11;24.30;53.60
1778;DHT22;886;50.082;8.222;2022-09-02T13:26:16;24.30;54.10
1778;DHT22;886;50.082;8.222;2022-09-02T13:29:38;24.30;53.60
1778;DHT22;886;50.082;8.222;2022-09-02T13:32:29;24.40;53.80
1778;DHT22;886;50.082;8.222;2022-09-02T13:35:00;24.40;53.20
1778;DHT22;886;50.082;8.222;2022-09-02T13:37:32;24.50;53.00
1778;DHT22;886;50.082;8.222;2022-09-02T13:40:16;24.40;52.60
1778;DHT22;886;50.082;8.222;2022-09-02T13:42:50;24.40;52.40
1778;DHT22;886;50.082;8.222;2022-09-02T13:45:20;24.40;52.70
1778;DHT22;886;50.082;8.222;2022-09-02T13:47:50;24.30;53.10
1778;DHT22;886;50.082;8.222;2022-09-02T13:50:22;24.30;53.20
1778;DHT22;886;50.082;8.222;2022-09-02T13:52:55;24.30;53.00
1778;DHT22;886;50.082;8.222;2022-09-02T13:55:50;24.40;53.00
1778;DHT22;886;50.082;8.222;2022-09-02T13:58:33;24.40;52.80
1778;DHT22;886;50.082;8.222;2022-09-02T14:01:21;24.30;52.30
1778;DHT22;886;50.082;8.222;2022-09-02T14:03:51;24.30;52.80
1778;DHT22;886;50.082;8.222;2022-09-02T14:06:22;24.30;52.50
1778;DHT22;886;50.082;8.222;2022-09-02T14:08:53;24.30;52.30
1778;DHT22;886;50.082;8.222;2022-09-02T14:11:22;24.40;51.50
1778;DHT22;886;50.082;8.222;2022-09-02T14:13:50;24.40;51.30
1778;DHT22;886;50.082;8.222;2022-09-02T14:16:26;24.40;51.40
1778;DHT22;886;50.082;8.222;2022-09-02T14:19:21;24.30;51.60
1778;DHT22;886;50.082;8.222;2022-09-02T14:21:53;24.30;50.80
1778;DHT22;886;50.082;8.222;2022-09-02T14:24:23;24.30;51.10
1778;DHT22;886;50.082;8.222;2022-09-02T14:26:53;24.30;50.70
1778;DHT22;886;50.082;8.222;2022-09-02T14:29:24;24.30;51.00
1778;DHT22;886;50.082;8.222;2022-09-02T14:32:11;24.40;51.40
1778;DHT22;886;50.082;8.222;2022-09-02T14:34:41;24.30;51.30
1778;DHT22;886;50.082;8.222;2022-09-02T14:37:30;24.40;51.10
1778;DHT22;886;50.082;8.222;2022-09-02T14:40:08;24.40;50.80
1778;DHT22;886;50.082;8.222;2022-09-02T14:42:45;24.40;50.40
1778;DHT22;886;50.082;8.222;2022-09-02T14:45:24;24.40;50.40
1778;DHT22;886;50.082;8.222;2022-09-02T14:47:59;24.50;50.60
1778;DHT22;886;50.082;8.222;2022-09-02T14:50:30;24.40;50.90
1778;DHT22;886;50.082;8.222;2022-09-02T14:53:03;24.40;50.60
1778;DHT22;886;50.082;8.222;2022-09-02T14:55:56;24.40;50.60
1778;DHT22;886;50.082;8.222;2022-09-02T14:58:25;24.40;50.60
1778;DHT22;886;50.082;8.222;2022-09-02T15:00:54;24.40;50.70
1778;DHT22;886;50.082;8.222;2022-09-02T15:03:29;24.40;50.50
1778;DHT22;886;50.082;8.222;2022-09-02T15:05:57;24.40;50.50
1778;DHT22;886;50.082;8.222;2022-09-02T15:08:24;24.40;50.40
1778;DHT22;886;50.082;8.222;2022-09-02T15:10:52;24.50;50.70
1778;DHT22;886;50.082;8.222;2022-09-02T15:13:26;24.50;50.50
1778;DHT22;886;50.082;8.222;2022-09-02T15:15:58;24.40;50.10
1778;DHT22;886;50.082;8.222;2022-09-02T15:18:27;24.40;50.30
1778;DHT22;886;50.082;8.222;2022-09-02T15:20:54;24.40;50.40
1778;DHT22;886;50.082;8.222;2022-09-02T15:23:24;24.30;50.40
1778;DHT22;886;50.082;8.222;2022-09-02T15:26:00;24.30;50.40
1778;DHT22;886;50.082;8.222;2022-09-02T15:28:27;24.40;50.80
1778;DHT22;886;50.082;8.222;2022-09-02T15:31:05;24.50;50.50
1778;DHT22;886;50.082;8.222;2022-09-02T15:33:34;24.40;50.30
1778;DHT22;886;50.082;8.222;2022-09-02T15:36:08;24.40;49.90
1778;DHT22;886;50.082;8.222;2022-09-02T15:38:37;24.40;49.50
1778;DHT22;886;50.082;8.222;2022-09-02T15:41:14;24.40;49.90
1778;DHT22;886;50.082;8.222;2022-09-02T15:43:43;24.40;50.00
1778;DHT22;886;50.082;8.222;2022-09-02T15:46:22;24.40;49.60
1778;DHT22;886;50.082;8.222;2022-09-02T15:49:01;24.30;49.70
1778;DHT22;886;50.082;8.222;2022-09-02T15:51:32;24.40;49.60
1778;DHT22;886;50.082;8.222;2022-09-02T15:54:04;24.40;49.20
1778;DHT22;886;50.082;8.222;2022-09-02T15:56:35;24.30;49.60
1778;DHT22;886;50.082;8.222;2022-09-02T15:59:05;24.30;49.50
1778;DHT22;886;50.082;8.222;2022-09-02T16:01:42;24.30;49.80
1778;DHT22;886;50.082;8.222;2022-09-02T16:04:12;24.30;49.50
1778;DHT22;886;50.082;8.222;2022-09-02T16:06:44;24.30;49.60
1778;DHT22;886;50.082;8.222;2022-09-02T16:09:16;24.30;49.40
1778;DHT22;886;50.082;8.222;2022-09-02T16:11:45;24.30;49.40
1778;DHT22;886;50.082;8.222;2022-09-02T16:14:14;24.40;49.40
1778;DHT22;886;50.082;8.222;2022-09-02T16:16:46;24.30;49.20
1778;DHT22;886;50.082;8.222;2022-09-02T16:19:17;24.30;49.10
1778;DHT22;886;50.082;8.222;2022-09-02T16:21:46;24.30;49.50
1778;DHT22;886;50.082;8.222;2022-09-02T16:24:13;24.30;49.40
1778;DHT22;886;50.082;8.222;2022-09-02T16:26:40;24.30;49.50
1778;DHT22;886;50.082;8.222;2022-09-02T16:29:10;24.10;49.70
1778;DHT22;886;50.082;8.222;2022-09-02T16:31:44;24.20;49.70
1778;DHT22;886;50.082;8.222;2022-09-02T16:34:36;24.20;49.60
1778;DHT22;886;50.082;8.222;2022-09-02T16:37:06;24.20;49.50
1778;DHT22;886;50.082;8.222;2022-09-02T16:39:33;24.20;49.50
1778;DHT22;886;50.082;8.222;2022-09-02T16:42:01;24.20;49.40
1778;DHT22;886;50.082;8.222;2022-09-02T16:44:30;24.20;49.20
1778;DHT22;886;50.082;8.222;2022-09-02T16:47:01;24.10;49.30
1778;DHT22;886;50.082;8.222;2022-09-02T16:49:32;24.10;49.40
1778;DHT22;886;50.082;8.222;2022-09-02T16:52:00;24.10;49.40
1778;DHT22;886;50.082;8.222;2022-09-02T16:54:27;24.10;49.30
1778;DHT22;886;50.082;8.222;2022-09-02T16:56:57;24.10;49.40
1778;DHT22;886;50.082;8.222;2022-09-02T16:59:25;24.10;49.10
1778;DHT22;886;50.082;8.222;2022-09-02T17:01:53;24.10;49.10
1778;DHT22;886;50.082;8.222;2022-09-02T17:04:23;24.00;49.40
1778;DHT22;886;50.082;8.222;2022-09-02T17:06:52;24.00;49.40
1778;DHT22;886;50.082;8.222;2022-09-02T17:09:19;24.00;49.40
1778;DHT22;886;50.082;8.222;2022-09-02T17:11:46;24.00;49.20
1778;DHT22;886;50.082;8.222;2022-09-02T17:14:15;23.90;49.30